Time;durP1;ratioP1;P1;durP2;ratioP2;P2;SDS_P1;SDS_P2;PMS_P1;PMS_P2;Temp;Humidity;BMP_temperature;BMP_pressure;BME280_temperature;BME280_humidity;BME280_pressure;Samples;Min_cycle;Max_cycle;Signal;HPM_P1;HPM_P2
2023/09/26 00:01:15;;;;;;;44.15;23.55;;;15.70;99.90;;;;;;5075888;28;20039;-78
2023/09/26 00:03:41;;;;;;;39.92;22.45;;;15.60;99.90;;;;;;5075949;28;20485;-85
2023/09/26 00:06:36;;;;;;;38.33;21.52;;;15.60;99.90;;;;;;5075699;28;20133;-85
2023/09/26 00:09:02;;;;;;;42.60;22.55;;;15.70;99.90;;;;;;5060225;28;20097;-85
2023/09/26 00:11:27;;;;;;;48.40;23.25;;;15.60;99.90;;;;;;5077484;28;20020;-79
2023/09/26 00:13:53;;;;;;;53.20;23.58;;;15.60;99.90;;;;;;5078828;28;20393;-85
2023/09/26 00:16:19;;;;;;;43.40;21.60;;;15.70;99.90;;;;;;5091708;28;20028;-85
2023/09/26 00:18:44;;;;;;;39.03;21.88;;;15.60;99.90;;;;;;5088984;28;20415;-85
2023/09/26 00:21:10;;;;;;;45.53;22.85;;;15.70;99.90;;;;;;5072381;28;20033;-79
2023/09/26 00:23:36;;;;;;;44.95;23.52;;;15.70;99.90;;;;;;5071255;28;20035;-86
2023/09/26 00:26:03;;;;;;;42.53;22.23;;;15.60;99.90;;;;;;5072514;28;20066;-85
2023/09/26 00:28:29;;;;;;;38.35;21.65;;;15.60;99.90;;;;;;5071359;28;20078;-84
2023/09/26 00:31:04;;;;;;;38.67;21.02;;;15.60;99.90;;;;;;5072211;28;20024;-84
2023/09/26 00:33:32;;;;;;;41.35;22.17;;;15.60;99.90;;;;;;5072973;28;20036;-84
2023/09/26 00:36:06;;;;;;;42.35;22.02;;;15.60;99.90;;;;;;5074540;28;20082;-78
2023/09/26 00:38:32;;;;;;;37.50;20.88;;;15.60;99.90;;;;;;5075516;28;20410;-78
2023/09/26 00:40:58;;;;;;;38.35;20.35;;;15.60;99.90;;;;;;5089416;28;20090;-86
2023/09/26 00:43:24;;;;;;;38.58;20.42;;;15.60;99.90;;;;;;5094722;28;20047;-85
2023/09/26 00:45:55;;;;;;;36.75;20.50;;;15.60;99.90;;;;;;5094444;28;20069;-77
2023/09/26 00:48:25;;;;;;;30.48;19.00;;;15.60;99.90;;;;;;5095985;28;20404;-86
2023/09/26 00:50:52;;;;;;;38.97;19.70;;;15.60;99.90;;;;;;5095055;28;20027;-86
2023/09/26 00:53:19;;;;;;;32.75;18.30;;;15.60;99.90;;;;;;5095684;28;20028;-86
2023/09/26 00:55:44;;;;;;;35.65;19.27;;;15.60;99.90;;;;;;5094981;28;20024;-85
2023/09/26 00:58:13;;;;;;;31.25;17.95;;;15.60;99.90;;;;;;5095598;28;20023;-77
2023/09/26 01:00:40;;;;;;;34.08;18.95;;;15.60;99.90;;;;;;5099405;28;20056;-85
2023/09/26 01:03:07;;;;;;;29.23;15.10;;;15.60;99.90;;;;;;5093999;28;20511;-78
2023/09/26 01:05:35;;;;;;;22.30;13.43;;;15.60;99.90;;;;;;5093557;28;20024;-86
2023/09/26 01:08:01;;;;;;;20.13;11.45;;;15.60;99.90;;;;;;5095419;28;20021;-77
2023/09/26 01:10:27;;;;;;;18.75;11.18;;;15.60;99.90;;;;;;5095155;28;20354;-86
2023/09/26 01:12:52;;;;;;;17.83;10.38;;;15.60;99.90;;;;;;5084943;28;20023;-86
2023/09/26 01:15:39;;;;;;;15.38;10.50;;;15.60;99.90;;;;;;5089437;28;20031;-78
2023/09/26 01:18:08;;;;;;;17.02;9.93;;;15.70;99.90;;;;;;5082516;28;20070;-86
2023/09/26 01:20:37;;;;;;;14.82;10.23;;;15.70;99.90;;;;;;5088617;28;20025;-78
2023/09/26 01:23:05;;;;;;;17.10;9.88;;;15.70;99.90;;;;;;5075236;28;20482;-78
2023/09/26 01:25:33;;;;;;;13.00;9.57;;;15.70;99.90;;;;;;5074037;28;20066;-78
2023/09/26 01:28:04;;;;;;;12.23;10.02;;;15.80;99.90;;;;;;5075104;28;20032;-82
2023/09/26 01:30:30;;;;;;;15.88;8.95;;;15.80;99.90;;;;;;5074290;28;20017;-79
2023/09/26 01:32:55;;;;;;;13.35;9.05;;;15.80;99.90;;;;;;5075104;28;20423;-79
2023/09/26 01:35:21;;;;;;;13.48;8.80;;;15.80;99.90;;;;;;5073813;28;20032;-88
2023/09/26 01:37:50;;;;;;;19.70;10.80;;;15.80;99.90;;;;;;5073135;28;20013;-87
2023/09/26 01:40:16;;;;;;;14.25;9.15;;;15.80;99.90;;;;;;5073866;28;20052;-79
2023/09/26 01:42:42;;;;;;;17.60;10.65;;;15.80;99.90;;;;;;5074325;28;20078;-87
2023/09/26 01:45:08;;;;;;;15.85;10.15;;;15.80;99.90;;;;;;5081971;28;20024;-88
2023/09/26 01:47:47;;;;;;;16.33;9.90;;;15.80;99.90;;;;;;5093291;28;20027;-79
2023/09/26 01:50:14;;;;;;;14.10;9.68;;;15.70;99.90;;;;;;5093394;28;20020;-79
2023/09/26 01:52:40;;;;;;;16.80;9.88;;;15.80;99.90;;;;;;5094104;28;20028;-88
2023/09/26 01:55:07;;;;;;;18.23;11.07;;;15.70;99.90;;;;;;5084741;28;20039;-88
2023/09/26 01:57:33;;;;;;;19.52;11.00;;;15.70;99.90;;;;;;5090638;28;20147;-80
2023/09/26 02:00:13;;;;;;;18.83;10.32;;;15.70;99.90;;;;;;5094809;28;20077;-79
2023/09/26 02:02:39;;;;;;;15.65;10.70;;;15.70;99.90;;;;;;5096312;28;20035;-83
2023/09/26 02:05:10;;;;;;;17.23;10.70;;;15.70;99.90;;;;;;5093421;28;20035;-90
2023/09/26 02:07:36;;;;;;;18.45;11.65;;;15.70;99.90;;;;;;5094074;28;20012;-87
2023/09/26 02:10:05;;;;;;;16.58;11.02;;;15.70;99.90;;;;;;5093058;28;20067;-79
2023/09/26 02:12:33;;;;;;;17.17;11.07;;;15.70;99.90;;;;;;5087327;28;20026;-87
2023/09/26 02:15:01;;;;;;;16.55;11.35;;;15.70;99.90;;;;;;5086412;28;20101;-88
2023/09/26 02:17:27;;;;;;;20.02;12.63;;;15.70;99.90;;;;;;5092605;28;20008;-79
2023/09/26 02:19:52;;;;;;;22.55;11.30;;;15.70;99.90;;;;;;5092710;28;20032;-79
2023/09/26 02:22:18;;;;;;;16.58;10.63;;;15.70;99.90;;;;;;5092675;28;20435;-79
2023/09/26 02:24:44;;;;;;;17.02;11.20;;;15.70;99.90;;;;;;5092925;28;20012;-79
2023/09/26 02:27:10;;;;;;;20.30;11.70;;;15.60;99.90;;;;;;5092131;28;20065;-86
2023/09/26 02:29:36;;;;;;;19.10;10.90;;;15.70;99.90;;;;;;5093817;28;20378;-78
2023/09/26 02:32:01;;;;;;;17.40;10.88;;;15.60;99.90;;;;;;5092346;28;20020;-79
2023/09/26 02:34:27;;;;;;;17.08;11.73;;;15.60;99.90;;;;;;5092101;28;20111;-79
2023/09/26 02:36:53;;;;;;;21.08;12.57;;;15.60;99.90;;;;;;5091447;28;20019;-79
2023/09/26 02:39:18;;;;;;;18.80;11.25;;;15.60;99.90;;;;;;5092289;28;20083;-79
2023/09/26 02:41:44;;;;;;;16.52;10.50;;;15.60;99.90;;;;;;5073970;28;20134;-87
2023/09/26 02:44:10;;;;;;;18.65;11.20;;;15.60;99.90;;;;;;5091539;28;20101;-84
2023/09/26 02:46:36;;;;;;;18.13;11.80;;;15.60;99.90;;;;;;5092435;28;20377;-87
2023/09/26 02:49:01;;;;;;;18.95;10.43;;;15.60;99.90;;;;;;5079551;28;20024;-78
2023/09/26 02:51:28;;;;;;;20.15;12.52;;;15.70;99.90;;;;;;5079155;28;20048;-87
2023/09/26 02:53:54;;;;;;;22.65;12.10;;;15.70;99.90;;;;;;5082800;28;20120;-79
2023/09/26 02:56:20;;;;;;;20.20;12.82;;;15.70;99.90;;;;;;5078088;28;20071;-79
2023/09/26 02:58:45;;;;;;;23.40;13.30;;;15.60;99.90;;;;;;5083531;28;20020;-79
2023/09/26 03:01:15;;;;;;;22.48;12.68;;;15.60;99.90;;;;;;5068978;28;20390;-80
2023/09/26 03:03:41;;;;;;;21.55;13.55;;;15.60;99.90;;;;;;5081918;28;20024;-86
2023/09/26 03:06:07;;;;;;;17.50;11.52;;;15.60;99.90;;;;;;5082102;28;20027;-79
2023/09/26 03:08:33;;;;;;;19.95;13.45;;;15.60;99.90;;;;;;5084090;28;20105;-79
2023/09/26 03:11:02;;;;;;;22.33;13.70;;;15.60;99.90;;;;;;5077398;28;20375;-87
2023/09/26 03:13:32;;;;;;;25.55;12.68;;;15.60;99.90;;;;;;5078424;28;20020;-79
2023/09/26 03:15:58;;;;;;;24.65;13.68;;;15.60;99.90;;;;;;5085626;28;20025;-79
2023/09/26 03:18:25;;;;;;;23.50;13.70;;;15.60;99.90;;;;;;5086460;28;20024;-80
2023/09/26 03:20:50;;;;;;;23.70;15.35;;;15.50;99.90;;;;;;5072041;28;20080;-86
2023/09/26 03:23:16;;;;;;;21.42;12.82;;;15.50;99.90;;;;;;5072286;28;20016;-86
2023/09/26 03:25:41;;;;;;;21.77;12.95;;;15.50;99.90;;;;;;5072195;28;20471;-80
2023/09/26 03:28:09;;;;;;;22.58;13.38;;;15.50;99.90;;;;;;5071923;28;20432;-87
2023/09/26 03:30:35;;;;;;;22.13;13.38;;;15.50;99.90;;;;;;5072238;28;20369;-88
2023/09/26 03:33:00;;;;;;;17.90;13.00;;;15.60;99.90;;;;;;5073435;28;20096;-79
2023/09/26 03:35:26;;;;;;;28.20;14.15;;;15.50;99.90;;;;;;5072913;28;20017;-79
2023/09/26 03:37:52;;;;;;;22.27;13.93;;;15.50;99.90;;;;;;5072742;28;20474;-88
2023/09/26 03:40:17;;;;;;;27.77;15.85;;;15.50;99.90;;;;;;5071793;28;20105;-80
2023/09/26 03:42:43;;;;;;;26.45;14.95;;;15.50;99.90;;;;;;5072660;28;20074;-80
2023/09/26 03:45:09;;;;;;;28.13;14.45;;;15.50;99.90;;;;;;5072085;28;20028;-87
2023/09/26 03:47:35;;;;;;;20.98;14.27;;;15.40;99.90;;;;;;5072591;28;20428;-87
2023/09/26 03:50:01;;;;;;;24.00;14.20;;;15.40;99.90;;;;;;5079178;28;20028;-88
2023/09/26 03:52:27;;;;;;;21.33;14.32;;;15.40;99.90;;;;;;5090804;28;20032;-89
2023/09/26 03:54:53;;;;;;;28.35;15.82;;;15.30;99.90;;;;;;5092553;28;20024;-89
2023/09/26 03:57:18;;;;;;;26.13;14.55;;;15.30;99.90;;;;;;5092362;28;20035;-87
2023/09/26 03:59:49;;;;;;;28.52;16.10;;;15.30;99.90;;;;;;5094037;28;20020;-79
2023/09/26 04:02:15;;;;;;;27.20;15.43;;;15.30;99.90;;;;;;5091680;28;20407;-89
2023/09/26 04:04:40;;;;;;;22.90;14.43;;;15.30;99.90;;;;;;5083292;28;20020;-89
2023/09/26 04:07:06;;;;;;;22.60;14.30;;;15.20;99.90;;;;;;5085031;28;20028;-89
2023/09/26 04:09:35;;;;;;;27.30;15.02;;;15.20;99.90;;;;;;5091627;28;20618;-89
2023/09/26 04:12:03;;;;;;;25.52;15.18;;;15.20;99.90;;;;;;5081822;28;20031;-79
2023/09/26 04:14:29;;;;;;;26.33;15.98;;;15.20;99.90;;;;;;5076544;28;20021;-79
2023/09/26 04:16:56;;;;;;;28.30;14.30;;;15.20;99.90;;;;;;5075425;28;20021;-89
2023/09/26 04:19:22;;;;;;;24.85;16.35;;;15.20;99.90;;;;;;5083958;28;20043;-79
2023/09/26 04:21:48;;;;;;;27.00;15.80;;;15.20;99.90;;;;;;5094728;28;20473;-79
2023/09/26 04:24:14;;;;;;;25.63;15.38;;;15.20;99.90;;;;;;5091708;28;20024;-78
2023/09/26 04:26:39;;;;;;;25.02;15.20;;;15.20;99.90;;;;;;5084466;28;20016;-88
2023/09/26 04:29:05;;;;;;;32.80;15.82;;;15.20;99.90;;;;;;5088675;28;20513;-88
2023/09/26 04:31:31;;;;;;;26.60;15.98;;;15.20;99.90;;;;;;5078903;28;20024;-79
2023/09/26 04:33:57;;;;;;;28.02;16.08;;;15.20;99.90;;;;;;5077202;28;20103;-87
2023/09/26 04:36:23;;;;;;;28.10;17.67;;;15.20;99.90;;;;;;5074675;28;20020;-88
2023/09/26 04:38:52;;;;;;;29.67;16.63;;;15.20;99.90;;;;;;5077276;28;20078;-91
2023/09/26 04:41:20;;;;;;;31.48;17.00;;;15.20;99.90;;;;;;5078591;28;20036;-89
2023/09/26 04:43:46;;;;;;;29.40;17.42;;;15.20;99.90;;;;;;5077007;28;20059;-90
2023/09/26 04:46:12;;;;;;;39.60;18.65;;;15.20;99.90;;;;;;5080450;28;20056;-89
2023/09/26 04:48:39;;;;;;;33.90;18.90;;;15.20;99.90;;;;;;5082486;28;20027;-88
2023/09/26 04:51:08;;;;;;;35.30;17.77;;;15.20;99.90;;;;;;5080443;28;20081;-89
2023/09/26 04:53:35;;;;;;;36.22;18.88;;;15.20;99.90;;;;;;5083005;28;20024;-89
2023/09/26 04:56:04;;;;;;;36.08;18.73;;;15.10;99.90;;;;;;5078160;28;20485;-89
2023/09/26 04:58:30;;;;;;;33.58;17.38;;;15.10;99.90;;;;;;5079023;28;20017;-89
2023/09/26 05:00:57;;;;;;;36.97;18.67;;;15.10;99.90;;;;;;5079228;28;20028;-90
2023/09/26 05:03:23;;;;;;;27.17;16.52;;;15.10;99.90;;;;;;5077258;28;20032;-88
2023/09/26 05:05:49;;;;;;;28.67;16.33;;;15.10;99.90;;;;;;5072530;28;20032;-83
2023/09/26 05:08:15;;;;;;;33.38;17.25;;;15.10;99.90;;;;;;5070824;28;20031;-91
2023/09/26 05:10:41;;;;;;;26.27;15.70;;;15.10;99.90;;;;;;5075675;28;20024;-89
2023/09/26 05:13:07;;;;;;;32.40;16.33;;;15.20;99.90;;;;;;5079085;28;20086;-91
2023/09/26 05:15:34;;;;;;;34.17;18.15;;;15.10;99.90;;;;;;5070247;28;20016;-91
2023/09/26 05:18:01;;;;;;;29.50;16.27;;;15.20;99.90;;;;;;5075974;28;20024;-92
2023/09/26 05:20:27;;;;;;;33.03;16.70;;;15.20;99.90;;;;;;5072919;28;20104;-93
2023/09/26 05:22:53;;;;;;;35.88;18.45;;;15.20;99.90;;;;;;5071894;28;20123;-89
2023/09/26 05:25:18;;;;;;;39.55;19.25;;;15.20;99.90;;;;;;5073424;28;20086;-89
2023/09/26 05:27:44;;;;;;;37.40;18.35;;;15.20;99.90;;;;;;5071642;28;20024;-89
2023/09/26 05:30:12;;;;;;;36.08;17.55;;;15.10;99.90;;;;;;5075004;28;20071;-90
2023/09/26 05:32:39;;;;;;;39.53;18.65;;;15.10;99.90;;;;;;5075692;28;20023;-89
2023/09/26 05:35:06;;;;;;;33.55;17.25;;;15.10;99.90;;;;;;5074655;28;20024;-86
2023/09/26 05:37:35;;;;;;;36.50;18.98;;;15.10;99.90;;;;;;5078154;28;20024;-90
2023/09/26 05:40:06;;;;;;;34.20;17.38;;;15.20;99.90;;;;;;5069122;28;20055;-89
2023/09/26 05:42:32;;;;;;;27.38;15.00;;;15.20;99.90;;;;;;5074323;28;20020;-90
2023/09/26 05:44:58;;;;;;;36.58;18.60;;;15.20;99.90;;;;;;5078194;28;20090;-92
2023/09/26 05:47:24;;;;;;;34.63;17.58;;;15.20;99.90;;;;;;5082248;28;20413;-91
2023/09/26 05:49:50;;;;;;;31.48;17.17;;;15.20;99.90;;;;;;5072168;28;20025;-91
2023/09/26 05:52:17;;;;;;;29.05;16.90;;;15.20;99.90;;;;;;5073177;28;20104;-90
2023/09/26 05:54:42;;;;;;;35.70;17.98;;;15.20;99.90;;;;;;5077710;28;20028;-90
2023/09/26 05:57:08;;;;;;;29.63;16.33;;;15.30;99.90;;;;;;5073772;28;20036;-90
2023/09/26 05:59:34;;;;;;;30.55;15.63;;;15.30;99.90;;;;;;5073751;28;20024;-90
2023/09/26 06:01:59;;;;;;;34.35;16.67;;;15.30;99.90;;;;;;5077811;28;20111;-91
2023/09/26 06:04:25;;;;;;;26.83;14.35;;;15.30;99.90;;;;;;5076799;28;20052;-91
2023/09/26 06:06:51;;;;;;;26.08;14.35;;;15.30;99.90;;;;;;5079711;28;20371;-90
2023/09/26 06:09:17;;;;;;;25.98;15.00;;;15.40;99.90;;;;;;5074734;28;20021;-80
2023/09/26 06:11:42;;;;;;;27.42;16.38;;;15.40;99.90;;;;;;5074396;28;20103;-81
2023/09/26 06:14:08;;;;;;;28.90;15.32;;;15.50;99.90;;;;;;5081617;28;20035;-81
2023/09/26 06:16:34;;;;;;;25.63;15.35;;;15.50;99.90;;;;;;5088273;28;20488;-90
2023/09/26 06:19:00;;;;;;;22.42;13.27;;;15.60;99.90;;;;;;5078294;28;20390;-90
2023/09/26 06:21:25;;;;;;;25.20;14.73;;;15.60;99.90;;;;;;5074582;28;20457;-80
2023/09/26 06:23:51;;;;;;;20.60;13.25;;;15.60;99.90;;;;;;5074882;28;20028;-80
2023/09/26 06:26:18;;;;;;;21.50;12.90;;;15.70;99.90;;;;;;5076138;28;20078;-80
2023/09/26 06:28:43;;;;;;;23.45;12.88;;;15.70;99.90;;;;;;5074849;28;20016;-81
2023/09/26 06:31:10;;;;;;;20.02;12.85;;;15.80;99.90;;;;;;5083250;28;20032;-80
2023/09/26 06:33:36;;;;;;;18.02;10.95;;;15.80;99.90;;;;;;5084920;28;20029;-89
2023/09/26 06:36:14;;;;;;;21.58;12.68;;;15.90;99.90;;;;;;5086653;28;20012;-90
2023/09/26 06:38:40;;;;;;;19.95;12.82;;;15.90;99.90;;;;;;5072543;28;20041;-90
2023/09/26 06:41:06;;;;;;;21.55;11.07;;;16.00;99.90;;;;;;5076826;28;20040;-90
2023/09/26 06:43:32;;;;;;;20.52;11.57;;;16.00;99.90;;;;;;5072326;28;20020;-90
2023/09/26 06:46:04;;;;;;;25.02;12.75;;;16.10;99.90;;;;;;5075480;28;20518;-89
2023/09/26 06:48:29;;;;;;;18.70;12.02;;;16.10;99.90;;;;;;5074819;28;20044;-81
2023/09/26 06:50:55;;;;;;;21.45;12.07;;;16.20;99.90;;;;;;5080107;28;20066;-81
2023/09/26 06:53:22;;;;;;;18.60;12.02;;;16.30;99.90;;;;;;5074124;28;20025;-80
2023/09/26 06:55:48;;;;;;;18.80;11.43;;;16.30;99.90;;;;;;5074838;28;20023;-80
2023/09/26 06:58:13;;;;;;;18.27;11.77;;;16.30;99.90;;;;;;5074676;28;20028;-81
2023/09/26 07:00:39;;;;;;;20.63;10.95;;;16.40;99.90;;;;;;5074456;28;20032;-90
2023/09/26 07:03:05;;;;;;;16.30;10.93;;;16.40;99.90;;;;;;5073579;28;20125;-81
2023/09/26 07:05:31;;;;;;;17.77;10.32;;;16.50;99.90;;;;;;5076389;28;20134;-80
2023/09/26 07:07:57;;;;;;;34.13;12.60;;;16.60;99.90;;;;;;5074180;28;20059;-81
2023/09/26 07:10:23;;;;;;;15.82;10.82;;;16.60;99.90;;;;;;5076116;28;20047;-80
2023/09/26 07:12:49;;;;;;;18.80;10.65;;;16.70;99.90;;;;;;5077230;28;20028;-80
2023/09/26 07:15:15;;;;;;;12.60;9.82;;;16.80;99.90;;;;;;5072383;28;20413;-90
2023/09/26 07:17:41;;;;;;;14.73;9.88;;;16.80;99.90;;;;;;5072046;28;20024;-90
2023/09/26 07:20:13;;;;;;;14.43;10.43;;;16.80;99.90;;;;;;5071553;28;20074;-81
2023/09/26 07:22:42;;;;;;;18.93;10.97;;;16.90;99.90;;;;;;5071800;28;20016;-80
2023/09/26 07:25:10;;;;;;;12.07;9.13;;;17.00;99.90;;;;;;5073147;28;20017;-90
2023/09/26 07:27:36;;;;;;;13.45;9.07;;;17.10;99.90;;;;;;5072119;28;20028;-81
2023/09/26 07:30:02;;;;;;;13.65;8.75;;;17.20;99.90;;;;;;5074167;28;20532;-81
2023/09/26 07:32:27;;;;;;;13.85;9.10;;;17.30;99.90;;;;;;5073573;28;20016;-81
2023/09/26 07:34:53;;;;;;;14.18;8.73;;;17.40;99.90;;;;;;5074180;28;20023;-80
2023/09/26 07:37:20;;;;;;;15.90;9.82;;;17.60;99.90;;;;;;5073609;28;20067;-80
2023/09/26 07:39:51;;;;;;;13.18;8.38;;;17.60;99.90;;;;;;5074733;28;20037;-81
2023/09/26 07:42:20;;;;;;;14.48;9.07;;;17.60;99.90;;;;;;5075971;28;20141;-81
2023/09/26 07:44:46;;;;;;;13.55;8.48;;;17.80;99.90;;;;;;5079411;28;20021;-81
2023/09/26 07:47:12;;;;;;;11.85;8.25;;;18.00;99.90;;;;;;5081405;28;20081;-90
2023/09/26 07:49:40;;;;;;;12.65;8.32;;;18.00;99.90;;;;;;5091788;28;20016;-90
2023/09/26 07:52:05;;;;;;;12.45;8.40;;;18.10;99.90;;;;;;5089405;28;20405;-81
2023/09/26 07:54:32;;;;;;;9.25;7.47;;;18.40;99.90;;;;;;5086688;28;20038;-80
2023/09/26 07:56:58;;;;;;;12.35;6.93;;;18.50;99.90;;;;;;5085482;28;20027;-80
2023/09/26 07:59:23;;;;;;;11.55;8.68;;;18.70;99.90;;;;;;5080753;28;20012;-80
2023/09/26 08:01:49;;;;;;;11.68;9.45;;;18.80;99.90;;;;;;5084473;28;20072;-81
2023/09/26 08:04:15;;;;;;;14.48;8.55;;;18.80;99.90;;;;;;5080545;28;20555;-81
2023/09/26 08:06:41;;;;;;;12.07;8.13;;;18.90;99.90;;;;;;5083663;28;20103;-81
2023/09/26 08:09:06;;;;;;;16.48;11.65;;;18.90;99.90;;;;;;5073523;28;20025;-81
2023/09/26 08:11:32;;;;;;;13.07;8.80;;;18.90;99.90;;;;;;5076823;28;20021;-81
2023/09/26 08:13:58;;;;;;;16.17;8.65;;;19.00;99.90;;;;;;5076208;28;20020;-90
2023/09/26 08:16:24;;;;;;;12.93;7.78;;;19.20;99.90;;;;;;5069520;28;20052;-90
2023/09/26 08:18:50;;;;;;;10.50;8.93;;;19.50;99.90;;;;;;5074518;28;20024;-81
2023/09/26 08:21:16;;;;;;;12.73;7.80;;;19.70;99.90;;;;;;5090223;28;20036;-81
2023/09/26 08:23:42;;;;;;;10.52;7.47;;;19.70;99.90;;;;;;5089703;28;20016;-81
2023/09/26 08:26:11;;;;;;;11.00;8.00;;;19.70;99.90;;;;;;5089764;28;20488;-90
2023/09/26 08:28:37;;;;;;;13.88;9.20;;;19.60;99.90;;;;;;5089312;28;20385;-89
2023/09/26 08:31:09;;;;;;;11.32;8.43;;;19.50;99.90;;;;;;5088963;28;20473;-90
2023/09/26 08:33:36;;;;;;;14.80;8.93;;;19.50;99.90;;;;;;5070642;28;20013;-89
2023/09/26 08:36:02;;;;;;;10.70;8.35;;;19.50;99.90;;;;;;5068874;28;20059;-89
2023/09/26 08:38:28;;;;;;;14.13;9.30;;;19.40;99.90;;;;;;5076992;28;20094;-89
2023/09/26 08:40:57;;;;;;;13.30;7.80;;;19.40;99.90;;;;;;5070648;28;20111;-89
2023/09/26 08:43:25;;;;;;;13.55;9.23;;;19.30;99.90;;;;;;5058770;28;20393;-82
2023/09/26 08:45:51;;;;;;;13.75;8.85;;;19.30;99.90;;;;;;5070567;28;20021;-81
2023/09/26 08:48:18;;;;;;;14.98;9.40;;;19.50;99.90;;;;;;5072122;28;20024;-87
2023/09/26 08:50:43;;;;;;;14.93;9.60;;;19.50;99.90;;;;;;5083976;28;20082;-89
2023/09/26 08:53:09;;;;;;;11.50;9.18;;;19.40;99.90;;;;;;5090749;28;20051;-81
2023/09/26 08:55:38;;;;;;;14.02;9.40;;;19.50;99.90;;;;;;5081269;28;20025;-81
2023/09/26 08:58:05;;;;;;;13.02;9.05;;;19.60;99.90;;;;;;5095697;28;20012;-81
2023/09/26 09:00:30;;;;;;;14.13;9.05;;;19.80;99.90;;;;;;5094527;28;20047;-89
2023/09/26 09:02:56;;;;;;;12.35;9.07;;;20.00;99.90;;;;;;5094086;28;20381;-81
2023/09/26 09:05:23;;;;;;;14.70;9.10;;;20.10;99.90;;;;;;5094348;28;20484;-81
2023/09/26 09:07:49;;;;;;;11.68;9.27;;;20.20;99.90;;;;;;5093481;28;20089;-81
2023/09/26 09:10:18;;;;;;;16.23;10.00;;;20.20;99.90;;;;;;5094209;28;20469;-81
2023/09/26 09:12:47;;;;;;;13.25;9.75;;;20.40;99.90;;;;;;5086576;28;20474;-81
2023/09/26 09:15:21;;;;;;;12.80;8.45;;;20.50;99.90;;;;;;5087951;28;20028;-81
2023/09/26 09:17:48;;;;;;;12.88;9.25;;;20.50;99.90;;;;;;5084209;28;20047;-81
2023/09/26 09:20:26;;;;;;;11.85;8.40;;;20.60;99.90;;;;;;5094461;28;20040;-81
2023/09/26 09:23:05;;;;;;;11.57;8.73;;;20.60;99.90;;;;;;5094389;28;20110;-81
2023/09/26 09:25:33;;;;;;;13.07;9.15;;;20.60;99.90;;;;;;5075411;28;20025;-88
2023/09/26 09:27:59;;;;;;;11.68;8.13;;;20.60;99.90;;;;;;5076296;28;20032;-81
2023/09/26 09:30:26;;;;;;;11.80;8.10;;;20.70;99.90;;;;;;5075021;28;20044;-81
2023/09/26 09:32:51;;;;;;;10.73;8.00;;;20.80;99.90;;;;;;5074999;28;20389;-89
2023/09/26 09:35:18;;;;;;;13.52;8.60;;;20.90;99.90;;;;;;5081365;28;20103;-81
2023/09/26 09:37:49;;;;;;;11.90;7.47;;;21.00;99.90;;;;;;5094312;28;20056;-89
2023/09/26 09:40:22;;;;;;;12.68;8.30;;;21.00;99.90;;;;;;5069373;28;20039;-81
2023/09/26 09:42:49;;;;;;;12.70;8.10;;;21.00;99.90;;;;;;5093753;28;20024;-89
2023/09/26 09:45:15;;;;;;;13.10;8.18;;;21.20;99.90;;;;;;5092874;28;20435;-89
2023/09/26 09:47:46;;;;;;;12.20;7.75;;;21.30;99.90;;;;;;5094126;28;20028;-89
2023/09/26 09:50:13;;;;;;;9.75;7.30;;;21.30;99.90;;;;;;5093865;28;20374;-81
2023/09/26 09:52:43;;;;;;;9.98;7.30;;;21.40;99.90;;;;;;5092446;28;20074;-81
2023/09/26 09:55:15;;;;;;;13.13;8.07;;;21.50;99.90;;;;;;5093805;28;20020;-81
2023/09/26 09:57:45;;;;;;;10.63;7.43;;;21.70;99.90;;;;;;5092591;28;20122;-81
2023/09/26 10:00:14;;;;;;;11.30;7.65;;;21.80;99.90;;;;;;5093644;28;20115;-88
2023/09/26 10:02:40;;;;;;;11.10;7.65;;;21.80;99.90;;;;;;5092448;28;20141;-80
2023/09/26 10:05:12;;;;;;;10.73;7.80;;;21.80;99.90;;;;;;5092491;28;20099;-81
2023/09/26 10:07:40;;;;;;;11.82;7.90;;;21.70;99.90;;;;;;5091479;28;20054;-81
2023/09/26 10:10:09;;;;;;;10.05;7.63;;;21.90;99.90;;;;;;5093140;28;20024;-82
2023/09/26 10:12:38;;;;;;;16.27;7.47;;;21.90;99.90;;;;;;5061327;28;20028;-80
2023/09/26 10:15:11;;;;;;;9.25;7.65;;;22.00;99.90;;;;;;5087619;28;20028;-88
2023/09/26 10:17:39;;;;;;;11.60;8.18;;;22.00;99.90;;;;;;5075255;28;20024;-88
2023/09/26 10:20:10;;;;;;;12.20;8.32;;;22.10;99.90;;;;;;5072908;28;20044;-82
2023/09/26 10:22:37;;;;;;;10.85;8.20;;;22.10;99.90;;;;;;5074278;28;20114;-81
2023/09/26 10:25:07;;;;;;;10.25;7.63;;;22.20;99.90;;;;;;5076459;28;20106;-89
2023/09/26 10:27:33;;;;;;;10.52;7.57;;;22.20;99.90;;;;;;5081328;28;20029;-89
2023/09/26 10:30:00;;;;;;;9.82;8.20;;;22.20;99.90;;;;;;5077649;28;20036;-89
2023/09/26 10:32:34;;;;;;;9.05;6.93;;;22.30;99.90;;;;;;5078994;28;20040;-88
2023/09/26 10:35:22;;;;;;;12.32;8.35;;;22.40;99.90;;;;;;5073763;28;20060;-88
2023/09/26 10:38:00;;;;;;;9.75;7.63;;;22.40;99.90;;;;;;5070605;28;20032;-87
2023/09/26 10:40:26;;;;;;;10.95;7.75;;;22.60;99.90;;;;;;5089599;28;20036;-88
2023/09/26 10:42:52;;;;;;;15.20;8.27;;;22.60;99.90;;;;;;5085262;28;20080;-89
2023/09/26 10:45:18;;;;;;;10.30;7.57;;;22.70;99.90;;;;;;5085406;28;20062;-88
2023/09/26 10:47:44;;;;;;;10.23;7.85;;;22.70;99.90;;;;;;5083656;28;20036;-88
2023/09/26 10:50:13;;;;;;;12.73;6.97;;;22.70;99.90;;;;;;5077737;28;20082;-86
2023/09/26 10:52:49;;;;;;;12.05;7.57;;;22.80;99.90;;;;;;5070512;28;20032;-85
2023/09/26 10:55:22;;;;;;;10.00;8.05;;;22.80;99.90;;;;;;5075944;28;20036;-85
2023/09/26 10:57:51;;;;;;;9.25;6.47;;;22.90;99.90;;;;;;5071542;28;20024;-85
2023/09/26 11:00:17;;;;;;;9.30;6.82;;;22.90;99.90;;;;;;5072675;28;20535;-85
2023/09/26 11:02:45;;;;;;;11.15;7.25;;;23.00;99.90;;;;;;5071129;28;20040;-85
2023/09/26 11:05:13;;;;;;;9.40;7.03;;;23.00;99.90;;;;;;5071890;28;20029;-85
2023/09/26 11:07:41;;;;;;;9.70;7.18;;;23.10;99.90;;;;;;5071677;28;20037;-86
2023/09/26 11:10:16;;;;;;;12.43;6.65;;;23.20;99.90;;;;;;5072679;28;20497;-86
2023/09/26 11:12:43;;;;;;;8.45;6.90;;;23.20;99.90;;;;;;5071853;28;20040;-85
2023/09/26 11:15:09;;;;;;;12.13;7.05;;;23.20;99.90;;;;;;5071477;28;20024;-80
2023/09/26 11:17:36;;;;;;;10.93;6.93;;;23.30;99.90;;;;;;5069639;28;20041;-79
2023/09/26 11:20:05;;;;;;;8.82;6.97;;;23.20;99.90;;;;;;5074854;28;20012;-79
2023/09/26 11:22:46;;;;;;;11.75;7.18;;;23.30;99.90;;;;;;5090949;28;20051;-86
2023/09/26 11:25:12;;;;;;;10.93;6.72;;;23.30;99.90;;;;;;5090713;28;20028;-79
2023/09/26 11:27:42;;;;;;;9.95;6.30;;;23.50;99.90;;;;;;5091079;28;20020;-86
2023/09/26 11:30:18;;;;;;;10.55;7.55;;;23.40;99.90;;;;;;5075781;28;20020;-79
2023/09/26 11:32:50;;;;;;;9.80;7.13;;;23.50;99.90;;;;;;5090190;28;20026;-79
2023/09/26 11:35:17;;;;;;;9.70;7.43;;;23.60;99.90;;;;;;5088854;28;20024;-85
2023/09/26 11:37:43;;;;;;;13.68;7.13;;;23.70;99.90;;;;;;5088904;28;20032;-79
2023/09/26 11:40:19;;;;;;;13.80;7.50;;;23.70;99.90;;;;;;5061499;28;20056;-79
2023/09/26 11:42:46;;;;;;;8.13;6.63;;;23.80;95.90;;;;;;5074853;28;20016;-79
2023/09/26 11:45:28;;;;;;;11.75;7.53;;;23.80;94.40;;;;;;5083012;28;20107;-79
2023/09/26 11:47:56;;;;;;;9.98;7.75;;;23.90;99.90;;;;;;5071696;28;20478;-85
2023/09/26 11:50:22;;;;;;;11.82;7.60;;;23.90;98.50;;;;;;5072436;28;20065;-85
2023/09/26 11:52:49;;;;;;;8.85;6.93;;;23.90;99.90;;;;;;5074167;28;20016;-79
2023/09/26 11:55:18;;;;;;;10.45;7.60;;;24.00;99.90;;;;;;5071786;28;20095;-86
2023/09/26 11:57:48;;;;;;;10.80;7.65;;;23.90;99.90;;;;;;5072001;28;20038;-80
2023/09/26 12:00:17;;;;;;;8.70;6.43;;;24.10;98.70;;;;;;5082139;28;20080;-79
2023/09/26 12:02:51;;;;;;;9.23;6.72;;;24.10;96.30;;;;;;5086501;28;20543;-79
2023/09/26 12:05:21;;;;;;;13.50;6.53;;;24.10;96.70;;;;;;5078051;28;20029;-85
2023/09/26 12:07:50;;;;;;;8.63;6.22;;;24.10;94.30;;;;;;5073533;28;20024;-86
2023/09/26 12:10:17;;;;;;;8.02;6.20;;;24.10;88.90;;;;;;5072960;28;20025;-86
2023/09/26 12:12:43;;;;;;;10.82;7.10;;;24.20;89.70;;;;;;5068075;28;20020;-86
2023/09/26 12:15:23;;;;;;;8.00;6.22;;;24.20;91.00;;;;;;5071047;28;20039;-85
2023/09/26 12:17:50;;;;;;;13.27;7.28;;;24.20;88.10;;;;;;5069188;28;20478;-86
2023/09/26 12:20:21;;;;;;;11.73;6.72;;;24.20;85.30;;;;;;5072473;28;20036;-85
2023/09/26 12:22:55;;;;;;;14.63;7.63;;;24.30;85.30;;;;;;5064768;28;20098;-85
2023/09/26 12:25:23;;;;;;;9.80;6.47;;;24.30;91.80;;;;;;5076378;28;20020;-84
2023/09/26 12:27:52;;;;;;;10.95;7.03;;;24.30;98.60;;;;;;5071259;28;20009;-85
2023/09/26 12:30:19;;;;;;;9.50;6.63;;;24.20;99.50;;;;;;5079050;28;20478;-85
2023/09/26 12:32:46;;;;;;;9.15;7.05;;;24.10;99.90;;;;;;5083426;28;20045;-85
2023/09/26 12:35:11;;;;;;;12.43;8.23;;;24.00;99.90;;;;;;5070954;28;20020;-86